Time;durP1;ratioP1;P1;durP2;ratioP2;P2;SDS_P1;SDS_P2;PMS_P1;PMS_P2;Temp;Humidity;BMP_temperature;BMP_pressure;BME280_temperature;BME280_humidity;BME280_pressure;Samples;Min_cycle;Max_cycle;Signal;HPM_P1;HPM_P2
2022/12/30 00:01:08;;;;;;;27.88;4.75;;;;;;;5.19;100.00;100605.38;4993569;28;20522;-86
2022/12/30 00:03:36;;;;;;;21.80;4.60;;;;;;;5.17;100.00;100615.78;4994096;28;20070;-86
2022/12/30 00:06:05;;;;;;;15.23;3.13;;;;;;;5.14;100.00;100614.81;4984278;28;20492;-86
2022/12/30 00:08:48;;;;;;;27.10;4.57;;;;;;;5.12;100.00;100619.13;4975582;28;20055;-86
2022/12/30 00:11:18;;;;;;;22.83;4.35;;;;;;;5.10;100.00;100621.72;4947581;28;20055;-86
2022/12/30 00:34:34;;;;;;;22.63;4.22;;;;;;;4.91;100.00;100633.47;4979424;28;20046;-86
2022/12/30 00:37:02;;;;;;;16.02;3.45;;;;;;;4.89;100.00;100645.63;4987562;28;20054;-86
2022/12/30 00:39:29;;;;;;;20.40;3.38;;;;;;;4.86;100.00;100659.50;4967469;28;20051;-87
2022/12/30 00:44:43;;;;;;;19.20;4.22;;;;;;;4.82;100.00;100654.16;4961503;28;20067;-86
2022/12/30 00:47:12;;;;;;;22.08;4.50;;;;;;;4.80;100.00;100645.41;4954031;28;20054;-85
2022/12/30 00:57:57;;;;;;;27.08;4.78;;;;;;;4.71;100.00;100650.41;4980871;28;20118;-86
2022/12/30 01:00:24;;;;;;;21.15;3.50;;;;;;;4.71;100.00;100653.00;4939919;28;20070;-86
2022/12/30 01:02:53;;;;;;;21.15;4.35;;;;;;;4.71;100.00;100656.53;4947165;28;20054;-86
2022/12/30 01:05:21;;;;;;;23.70;3.33;;;;;;;4.72;100.00;100650.44;4977511;28;20051;-86
2022/12/30 01:07:48;;;;;;;15.07;4.35;;;;;;;4.71;100.00;100664.38;4960165;28;20778;-86
2022/12/30 01:10:16;;;;;;;19.05;4.15;;;;;;;4.71;100.00;100659.13;4976878;28;20062;-86
2022/12/30 01:12:43;;;;;;;19.85;4.18;;;;;;;4.72;100.00;100675.69;4989924;28;20065;-86
2022/12/30 01:15:11;;;;;;;26.27;4.53;;;;;;;4.72;100.00;100670.47;4939097;28;20058;-86
2022/12/30 01:17:38;;;;;;;18.73;3.92;;;;;;;4.72;100.00;100683.50;4961380;28;20080;-86
2022/12/30 01:20:07;;;;;;;25.25;4.82;;;;;;;4.69;100.00;100679.97;4974358;28;20047;-86
2022/12/30 01:22:34;;;;;;;20.63;3.95;;;;;;;4.67;100.00;100678.19;4971050;28;20042;-86
2022/12/30 01:25:02;;;;;;;20.60;4.05;;;;;;;4.66;100.00;100684.25;4962754;28;20058;-86
2022/12/30 01:27:32;;;;;;;22.08;4.70;;;;;;;4.65;100.00;100691.19;4978490;28;20070;-86
2022/12/30 01:30:00;;;;;;;12.82;3.97;;;;;;;4.63;100.00;100690.28;4953071;28;20057;-86
2022/12/30 01:32:29;;;;;;;21.67;3.25;;;;;;;4.62;100.00;100695.44;4976120;28;20057;-87
2022/12/30 01:34:57;;;;;;;24.48;3.85;;;;;;;4.58;100.00;100684.06;4994554;28;20480;-86
2022/12/30 01:37:25;;;;;;;22.15;3.17;;;;;;;4.59;100.00;100700.59;4956592;28;20050;-86
2022/12/30 01:39:53;;;;;;;15.25;3.75;;;;;;;4.59;100.00;100695.38;4992803;28;20093;-86
2022/12/30 01:42:30;;;;;;;25.75;4.85;;;;;;;4.57;100.00;100708.38;4977879;28;20363;-86
2022/12/30 01:45:16;;;;;;;17.33;3.80;;;;;;;4.54;100.00;100703.09;4978096;28;20050;-87
2022/12/30 01:47:55;;;;;;;23.58;5.07;;;;;;;4.54;100.00;100712.63;4953874;28;20054;-86
2022/12/30 01:50:55;;;;;;;22.92;3.78;;;;;;;4.51;100.00;100715.19;4977015;28;20062;-86
2022/12/30 01:53:35;;;;;;;19.05;2.95;;;;;;;4.46;100.00;100713.34;4970833;28;20531;-86
2022/12/30 01:56:21;;;;;;;21.42;4.45;;;;;;;4.44;100.00;100715.03;4977265;28;20060;-86
2022/12/30 01:59:13;;;;;;;22.65;4.13;;;;;;;4.44;100.00;100717.63;4972267;28;20054;-86
2022/12/30 02:01:42;;;;;;;22.52;3.58;;;;;;;4.43;100.00;100714.97;4960878;28;20051;-86
2022/12/30 02:04:16;;;;;;;21.23;3.60;;;;;;;4.41;100.00;100714.94;4959980;28;20049;-85
2022/12/30 02:07:19;;;;;;;22.33;4.05;;;;;;;4.43;100.00;100720.19;4992756;28;20046;-86
2022/12/30 02:09:48;;;;;;;19.58;4.13;;;;;;;4.43;100.00;100733.25;4990755;28;20050;-86
2022/12/30 02:12:16;;;;;;;20.88;4.07;;;;;;;4.42;100.00;100724.53;4960776;28;20050;-86
2022/12/30 02:14:46;;;;;;;22.25;3.78;;;;;;;4.42;100.00;100723.63;4989596;28;20813;-86
2022/12/30 02:17:26;;;;;;;22.70;3.38;;;;;;;4.40;100.00;100720.97;4975204;28;20050;-86
2022/12/30 02:20:28;;;;;;;22.77;4.40;;;;;;;4.39;100.00;100728.78;4990428;28;20050;-86
2022/12/30 02:23:08;;;;;;;21.40;3.83;;;;;;;4.37;100.00;100730.47;4975047;28;20690;-86
2022/12/30 02:26:07;;;;;;;19.90;3.80;;;;;;;4.35;100.00;100730.44;4980318;28;20415;-86
2022/12/30 02:29:06;;;;;;;38.53;5.18;;;;;;;4.33;100.00;100731.22;4990227;28;20061;-86
2022/12/30 02:31:55;;;;;;;17.13;4.03;;;;;;;4.34;100.00;100727.78;4991767;28;20030;-86
2022/12/30 02:34:44;;;;;;;21.67;4.78;;;;;;;4.32;100.00;100737.28;4965836;28;20058;-86
2022/12/30 02:37:30;;;;;;;23.63;3.72;;;;;;;4.30;100.00;100738.13;4981076;28;20431;-86
2022/12/30 02:40:08;;;;;;;21.08;3.92;;;;;;;4.30;100.00;100751.16;4981067;28;20053;-86
2022/12/30 02:45:47;;;;;;;19.08;3.78;;;;;;;4.30;100.00;100739.84;4987584;28;20050;-86
2022/12/30 02:48:21;;;;;;;20.70;3.72;;;;;;;4.32;100.00;100745.13;4965308;28;20053;-86
2022/12/30 02:53:39;;;;;;;16.23;4.07;;;;;;;4.36;100.00;100753.06;4977442;28;20050;-86
2022/12/30 02:56:08;;;;;;;24.80;4.00;;;;;;;4.38;100.00;100747.88;4994366;28;20050;-86
2022/12/30 02:58:39;;;;;;;18.80;3.97;;;;;;;4.40;100.00;100740.97;4973270;28;20054;-86
2022/12/30 03:04:29;;;;;;;23.55;4.05;;;;;;;4.42;100.00;100750.63;4961522;28;20065;-86
2022/12/30 03:07:04;;;;;;;28.90;4.35;;;;;;;4.43;100.00;100748.91;4964667;28;20047;-86
2022/12/30 03:12:55;;;;;;;22.08;3.55;;;;;;;4.38;100.00;100767.03;4975372;28;20043;-86
2022/12/30 03:15:30;;;;;;;22.25;3.45;;;;;;;4.36;100.00;100755.66;4990045;28;20047;-86
2022/12/30 03:17:58;;;;;;;22.70;3.67;;;;;;;4.34;100.00;100765.19;4977070;28;20055;-86
2022/12/30 03:20:27;;;;;;;18.45;3.70;;;;;;;4.34;100.00;100783.44;4949714;28;20047;-87
2022/12/30 03:28:34;;;;;;;17.15;4.03;;;;;;;4.27;100.00;100782.41;4978031;28;20074;-86
2022/12/30 03:31:06;;;;;;;23.05;4.03;;;;;;;4.28;100.00;100773.72;4960327;28;20051;-86
2022/12/30 03:33:33;;;;;;;21.30;4.55;;;;;;;4.28;100.00;100773.72;4940752;28;20054;-86
2022/12/30 03:36:19;;;;;;;15.30;3.60;;;;;;;4.27;100.00;100779.78;4961080;28;20058;-86
2022/12/30 03:38:55;;;;;;;17.92;4.28;;;;;;;4.26;100.00;100774.53;4974581;28;20047;-86
2022/12/30 03:41:24;;;;;;;23.73;3.72;;;;;;;4.25;100.00;100784.09;4974983;28;20050;-86
2022/12/30 03:43:53;;;;;;;24.02;4.40;;;;;;;4.24;100.00;100782.31;4983782;28;20050;-86
2022/12/30 03:46:27;;;;;;;15.32;3.72;;;;;;;4.23;100.00;100792.69;4960158;28;20062;-86
2022/12/30 03:48:54;;;;;;;27.85;4.22;;;;;;;4.22;100.00;100797.03;4951330;28;20063;-86
2022/12/30 03:51:21;;;;;;;25.02;4.00;;;;;;;4.23;100.00;100808.34;4984859;28;20059;-86
2022/12/30 03:53:49;;;;;;;22.00;4.63;;;;;;;4.21;100.00;100802.19;4966117;28;20050;-86
2022/12/30 03:56:16;;;;;;;21.63;5.00;;;;;;;4.20;100.00;100797.84;4977935;28;20043;-86
2022/12/30 03:58:44;;;;;;;19.88;3.42;;;;;;;4.18;100.00;100789.06;4952640;28;20050;-86
2022/12/30 04:01:11;;;;;;;17.42;3.70;;;;;;;4.17;100.00;100795.13;4991147;28;20050;-86
2022/12/30 04:03:39;;;;;;;29.13;4.60;;;;;;;4.14;100.00;100793.34;4991135;28;20058;-87
2022/12/30 04:06:06;;;;;;;18.40;4.03;;;;;;;4.09;100.00;100781.88;4974891;28;20496;-86
2022/12/30 04:08:47;;;;;;;23.50;4.65;;;;;;;4.05;100.00;100780.91;4951954;28;20051;-86
2022/12/30 04:11:36;;;;;;;31.10;3.97;;;;;;;3.99;100.00;100772.91;4975267;28;20523;-86
2022/12/30 04:14:04;;;;;;;18.75;3.35;;;;;;;3.96;100.00;100784.97;4936963;28;20061;-86
2022/12/30 04:16:31;;;;;;;17.90;3.65;;;;;;;3.91;100.00;100787.44;4984302;28;20058;-86
2022/12/30 04:18:59;;;;;;;23.80;4.30;;;;;;;3.89;100.00;100786.50;4964253;28;20452;-86
2022/12/30 04:21:26;;;;;;;26.27;4.25;;;;;;;3.86;100.00;100792.53;4940175;28;20039;-86
2022/12/30 04:23:54;;;;;;;19.13;4.30;;;;;;;3.87;100.00;100819.47;4963655;28;20054;-86
2022/12/30 04:26:22;;;;;;;17.67;4.35;;;;;;;3.86;100.00;100825.53;4942195;28;20038;-86
2022/12/30 04:28:49;;;;;;;22.85;4.38;;;;;;;3.85;100.00;100819.41;4976808;28;20046;-86
2022/12/30 04:31:16;;;;;;;20.45;4.30;;;;;;;3.83;100.00;100818.50;4965142;28;20054;-85
2022/12/30 04:33:49;;;;;;;23.65;5.15;;;;;;;3.81;100.00;100814.97;4973017;28;20047;-86
2022/12/30 04:36:17;;;;;;;18.65;5.10;;;;;;;3.81;100.00;100814.09;4952705;28;20489;-85
2022/12/30 04:38:45;;;;;;;27.20;4.65;;;;;;;3.80;100.00;100805.38;4986788;28;20058;-86
2022/12/30 04:41:13;;;;;;;16.35;3.97;;;;;;;3.80;100.00;100813.22;4992785;28;20074;-86
2022/12/30 04:43:40;;;;;;;22.75;4.47;;;;;;;3.80;100.00;100815.81;4974577;28;20054;-86
2022/12/30 04:46:07;;;;;;;25.55;4.70;;;;;;;3.81;100.00;100807.13;4963532;28;20421;-86
2022/12/30 04:48:37;;;;;;;29.23;4.88;;;;;;;3.82;100.00;100821.03;4956122;28;20057;-85
2022/12/30 04:51:05;;;;;;;19.45;5.22;;;;;;;3.82;100.00;100808.94;4991008;28;20497;-86
2022/12/30 04:53:35;;;;;;;19.33;3.72;;;;;;;3.81;100.00;100803.66;4947156;28;20117;-87
2022/12/30 04:56:03;;;;;;;20.63;4.40;;;;;;;3.81;100.00;100811.47;4976003;28;20509;-86
2022/12/30 04:58:30;;;;;;;26.85;4.15;;;;;;;3.84;100.00;100811.59;4959138;28;20062;-86
2022/12/30 05:01:00;;;;;;;22.33;4.65;;;;;;;3.86;100.00;100825.53;4976386;28;20051;-86
2022/12/30 05:03:27;;;;;;;19.02;4.30;;;;;;;3.88;100.00;100816.03;4958914;28;20054;-87
2022/12/30 05:05:56;;;;;;;23.75;4.38;;;;;;;3.88;100.00;100819.53;4973198;28;20054;-86
2022/12/30 05:08:23;;;;;;;22.17;4.00;;;;;;;3.92;100.00;100817.91;4936237;28;20059;-86
2022/12/30 05:10:52;;;;;;;23.85;3.90;;;;;;;3.96;100.00;100822.34;4966721;28;20043;-86
2022/12/30 05:13:19;;;;;;;23.67;4.55;;;;;;;3.97;100.00;100816.31;4990414;28;20050;-86
2022/12/30 05:15:47;;;;;;;24.35;3.88;;;;;;;4.01;100.00;100819.91;4958267;28;20571;-86
2022/12/30 05:18:14;;;;;;;20.40;5.63;;;;;;;4.00;100.00;100819.00;4972329;28;20497;-86
2022/12/30 05:20:42;;;;;;;17.05;3.95;;;;;;;4.00;100.00;100819.00;4963486;28;20047;-85
2022/12/30 05:26:13;;;;;;;15.32;4.53;;;;;;;4.00;100.00;100819.00;4955691;28;20047;-85
2022/12/30 05:26:15;;;;;;;22.77;4.82;;;;;;;3.98;100.00;100819.81;4965715;28;20401;-85
2022/12/30 05:28:44;;;;;;;31.48;5.70;;;;;;;3.98;100.00;100822.41;4961097;28;20653;-86
2022/12/30 05:31:16;;;;;;;21.67;5.47;;;;;;;3.99;100.00;100831.97;4977577;28;20055;-85
2022/12/30 05:33:44;;;;;;;28.00;4.78;;;;;;;3.97;100.00;100823.22;4970656;28;20061;-86
2022/12/30 05:36:13;;;;;;;25.63;5.03;;;;;;;3.98;100.00;100817.19;4960378;28;20053;-85
2022/12/30 05:38:40;;;;;;;19.88;4.65;;;;;;;4.00;100.00;100826.81;4939866;28;20058;-85
2022/12/30 05:41:09;;;;;;;19.40;5.22;;;;;;;4.02;100.00;100822.53;4986822;28;20050;-85
2022/12/30 05:43:48;;;;;;;21.00;6.32;;;;;;;4.05;100.00;100827.84;4973906;28;20046;-85
2022/12/30 05:46:16;;;;;;;22.02;5.78;;;;;;;4.08;100.00;100821.81;4968859;28;20058;-85
2022/12/30 05:48:44;;;;;;;24.25;5.85;;;;;;;4.10;100.00;100823.66;4988049;28;20091;-86
2022/12/30 05:51:12;;;;;;;21.40;6.80;;;;;;;4.12;100.00;100814.97;4984876;28;20053;-85
2022/12/30 05:53:39;;;;;;;17.80;6.72;;;;;;;4.15;100.00;100812.47;4973133;28;20131;-86
2022/12/30 05:56:07;;;;;;;26.55;6.47;;;;;;;4.18;100.00;100816.06;4934457;28;20058;-86
2022/12/30 05:58:36;;;;;;;19.02;6.22;;;;;;;4.20;100.00;100813.50;4973510;28;20046;-86
2022/12/30 06:01:03;;;;;;;16.52;6.30;;;;;;;4.22;100.00;100812.69;4963052;28;20038;-85
2022/12/30 06:03:32;;;;;;;20.25;6.38;;;;;;;4.25;100.00;100810.19;4975730;28;20408;-86
2022/12/30 06:06:07;;;;;;;25.48;6.70;;;;;;;4.27;100.00;100816.31;4984448;28;20112;-86
2022/12/30 06:08:35;;;;;;;26.15;6.45;;;;;;;4.29;100.00;100826.78;4981232;28;20146;-86
2022/12/30 06:11:05;;;;;;;19.08;6.93;;;;;;;4.32;100.00;100820.78;4976993;28;20057;-85
2022/12/30 06:13:32;;;;;;;21.27;6.20;;;;;;;4.33;100.00;100820.81;4983289;28;20067;-86
2022/12/30 06:15:59;;;;;;;20.70;5.63;;;;;;;4.35;100.00;100818.22;4964828;28;20054;-86
2022/12/30 06:18:27;;;;;;;22.08;6.05;;;;;;;4.34;100.00;100817.34;4996902;28;20050;-86
2022/12/30 06:20:56;;;;;;;18.58;5.65;;;;;;;4.34;100.00;100806.03;4996759;28;20050;-86
2022/12/30 06:23:24;;;;;;;14.27;5.72;;;;;;;4.31;100.00;100801.63;4987527;28;20443;-86
2022/12/30 06:25:57;;;;;;;18.08;5.40;;;;;;;4.28;100.00;100810.25;4980923;28;20046;-87
2022/12/30 06:28:26;;;;;;;19.08;5.80;;;;;;;4.24;100.00;100807.53;4948311;28;20051;-86
2022/12/30 06:30:54;;;;;;;18.98;4.68;;;;;;;4.22;100.00;100798.78;4996638;28;20130;-86
2022/12/30 06:33:23;;;;;;;11.73;4.90;;;;;;;4.16;100.00;100804.69;4964370;28;20076;-85
2022/12/30 06:35:51;;;;;;;10.77;4.15;;;;;;;4.12;100.00;100797.63;4995198;28;20043;-86
2022/12/30 06:38:19;;;;;;;12.98;4.93;;;;;;;4.08;100.00;100808.78;4979932;28;20050;-86
2022/12/30 06:40:46;;;;;;;12.93;4.10;;;;;;;4.04;100.00;100804.31;5007658;28;20046;-85
2022/12/30 06:43:13;;;;;;;19.13;4.78;;;;;;;4.00;100.00;100807.69;4975135;28;20061;-85
2022/12/30 06:45:41;;;;;;;12.15;4.15;;;;;;;3.95;100.00;100804.97;4979143;28;20054;-86
2022/12/30 06:48:09;;;;;;;18.15;5.50;;;;;;;3.90;100.00;100790.91;4974019;28;20061;-86
2022/12/30 06:50:37;;;;;;;13.27;4.57;;;;;;;3.85;100.00;100792.47;4995816;28;20050;-86
2022/12/30 06:53:05;;;;;;;14.88;4.22;;;;;;;3.82;100.00;100797.59;4973252;28;20561;-85
2022/12/30 06:55:33;;;;;;;12.57;3.53;;;;;;;3.77;100.00;100787.03;5005162;28;20058;-86
2022/12/30 06:58:03;;;;;;;17.45;4.25;;;;;;;3.74;100.00;100789.53;4957483;28;20043;-86
2022/12/30 07:00:31;;;;;;;22.27;4.68;;;;;;;3.69;100.00;100788.53;4994200;28;20055;-86
2022/12/30 07:02:59;;;;;;;17.80;4.20;;;;;;;3.67;100.00;100782.41;4980532;28;20054;-85
2022/12/30 07:05:26;;;;;;;15.32;4.00;;;;;;;3.64;100.00;100792.72;4979817;28;20054;-86
2022/12/30 07:07:54;;;;;;;10.98;3.45;;;;;;;3.60;100.00;100791.75;4948517;28;20084;-85
2022/12/30 07:10:21;;;;;;;30.13;4.38;;;;;;;3.58;100.00;100797.75;5012216;28;20061;-85
2022/12/30 07:12:48;;;;;;;17.77;5.15;;;;;;;3.56;100.00;100795.09;4972394;28;20069;-86
2022/12/30 07:15:16;;;;;;;16.05;4.07;;;;;;;3.53;100.00;100802.81;4999931;28;20050;-85
2022/12/30 07:17:43;;;;;;;25.63;4.15;;;;;;;3.52;100.00;100798.44;4965569;28;20042;-85
2022/12/30 07:20:12;;;;;;;10.93;3.30;;;;;;;3.51;100.00;100810.56;4998580;28;20058;-85
2022/12/30 07:22:40;;;;;;;14.30;3.38;;;;;;;3.50;100.00;100806.22;4964073;28;20061;-85
2022/12/30 07:25:07;;;;;;;20.73;3.78;;;;;;;3.48;100.00;100802.69;4981065;28;20057;-85
2022/12/30 07:27:35;;;;;;;14.52;3.70;;;;;;;3.46;100.00;100788.72;4982498;28;20049;-86
2022/12/30 07:30:04;;;;;;;13.40;4.05;;;;;;;3.45;100.00;100792.16;4972160;28;20515;-85
2022/12/30 07:32:31;;;;;;;18.40;4.10;;;;;;;3.45;100.00;100793.88;4977117;28;20058;-86
2022/12/30 07:34:59;;;;;;;20.88;4.15;;;;;;;3.44;100.00;100787.78;4965545;28;20050;-85
2022/12/30 07:37:26;;;;;;;12.70;3.25;;;;;;;3.43;100.00;100787.75;4997555;28;20047;-85
2022/12/30 07:39:53;;;;;;;16.65;4.07;;;;;;;3.43;100.00;100777.31;4978204;28;20046;-85
2022/12/30 07:42:21;;;;;;;16.42;3.70;;;;;;;3.43;100.00;100787.75;4961686;28;20065;-86
2022/12/30 07:44:48;;;;;;;11.48;4.30;;;;;;;3.43;100.00;100772.09;4939767;28;20054;-85
2022/12/30 07:47:16;;;;;;;18.30;4.30;;;;;;;3.43;100.00;100774.72;4975357;28;20061;-86
2022/12/30 07:49:43;;;;;;;25.85;4.47;;;;;;;3.43;100.00;100775.59;4978794;28;20069;-86
2022/12/30 07:52:11;;;;;;;19.58;4.38;;;;;;;3.41;100.00;100769.44;4965430;28;20043;-85
2022/12/30 07:54:38;;;;;;;15.77;3.70;;;;;;;3.40;100.00;100769.41;4948122;28;20050;-85
2022/12/30 07:57:05;;;;;;;13.88;3.55;;;;;;;3.41;100.00;100766.84;4964061;28;20420;-85
2022/12/30 07:59:33;;;;;;;17.98;4.32;;;;;;;3.40;100.00;100762.47;4918194;29;20054;-86
2022/12/30 08:02:00;;;;;;;13.77;3.72;;;;;;;3.40;100.00;100757.25;4924659;29;20039;-85
2022/12/30 08:04:28;;;;;;;14.48;3.42;;;;;;;3.39;100.00;100749.41;4945172;28;20129;-86
2022/12/30 08:07:16;;;;;;;18.75;3.13;;;;;;;3.38;100.00;100752.84;4943432;29;20051;-85
2022/12/30 08:09:44;;;;;;;18.05;4.20;;;;;;;3.38;100.00;100748.50;4928734;29;20059;-85
2022/12/30 08:12:11;;;;;;;11.13;3.35;;;;;;;3.36;100.00;100739.75;4967630;28;20051;-85
2022/12/30 08:14:39;;;;;;;15.10;3.70;;;;;;;3.37;100.00;100743.28;4943217;28;20055;-86
2022/12/30 08:17:07;;;;;;;16.10;4.50;;;;;;;3.37;100.00;100746.75;4946798;29;20043;-85
2022/12/30 08:19:35;;;;;;;13.23;3.55;;;;;;;3.38;100.00;100735.47;4955128;28;20111;-86
2022/12/30 08:22:02;;;;;;;19.33;3.83;;;;;;;3.39;100.00;100733.78;4957458;28;20047;-85
2022/12/30 08:24:29;;;;;;;16.25;3.58;;;;;;;3.40;100.00;100726.00;4956150;28;20066;-86
2022/12/30 08:26:57;;;;;;;16.00;3.78;;;;;;;3.41;100.00;100724.28;4923501;29;20082;-85
2022/12/30 08:29:24;;;;;;;20.73;3.97;;;;;;;3.42;100.00;100721.75;4930657;28;20051;-86
2022/12/30 08:31:51;;;;;;;12.10;3.30;;;;;;;3.43;100.00;100725.22;4931337;28;20420;-85
2022/12/30 08:34:19;;;;;;;14.10;3.10;;;;;;;3.45;100.00;100716.59;4951507;28;20055;-86
2022/12/30 08:36:47;;;;;;;18.60;3.42;;;;;;;3.46;100.00;100710.56;4956209;28;20043;-86
2022/12/30 08:39:15;;;;;;;13.25;4.03;;;;;;;3.48;100.00;100714.09;4940926;29;20051;-85
2022/12/30 08:41:46;;;;;;;13.00;3.00;;;;;;;3.49;100.00;100715.84;4953370;28;20385;-85
2022/12/30 08:44:23;;;;;;;13.68;3.58;;;;;;;3.51;100.00;100697.66;4936783;28;20047;-86
2022/12/30 08:46:51;;;;;;;18.85;3.60;;;;;;;3.55;100.00;100702.13;4941928;28;20055;-85
2022/12/30 08:49:20;;;;;;;19.20;3.50;;;;;;;3.58;100.00;100703.94;4951071;29;20403;-85
2022/12/30 08:51:48;;;;;;;11.95;3.70;;;;;;;3.61;100.00;100696.19;4954235;29;20051;-85
2022/12/30 08:54:16;;;;;;;17.17;3.47;;;;;;;3.63;100.00;100700.63;4956543;28;20501;-85
2022/12/30 08:56:45;;;;;;;11.00;3.22;;;;;;;3.67;100.00;100688.59;4948157;28;20051;-85
2022/12/30 08:59:14;;;;;;;16.40;3.53;;;;;;;3.71;100.00;100698.25;4940574;29;20051;-85
2022/12/30 09:01:43;;;;;;;13.30;3.17;;;;;;;3.76;100.00;100687.94;4945398;28;20043;-86
2022/12/30 09:04:11;;;;;;;15.88;3.85;;;;;;;3.80;100.00;100687.19;4963701;28;20048;-85
2022/12/30 09:06:40;;;;;;;13.55;3.25;;;;;;;3.83;100.00;100685.56;4969438;28;20074;-86
2022/12/30 09:09:10;;;;;;;8.55;2.90;;;;;;;3.87;100.00;100676.09;4955740;28;20035;-85
2022/12/30 09:11:39;;;;;;;14.85;3.78;;;;;;;3.91;100.00;100683.16;4958371;28;20047;-86
2022/12/30 09:14:08;;;;;;;16.77;4.32;;;;;;;3.95;100.00;100673.69;4970591;28;20047;-85
2022/12/30 09:16:35;;;;;;;12.48;3.75;;;;;;;3.98;100.00;100676.41;4952138;28;20432;-86
2022/12/30 09:19:03;;;;;;;13.43;3.50;;;;;;;4.03;100.00;100661.78;4941258;29;20583;-85
2022/12/30 09:21:31;;;;;;;18.10;3.45;;;;;;;4.05;100.00;100652.25;4965400;28;20055;-86
2022/12/30 09:24:01;;;;;;;11.80;3.45;;;;;;;4.09;100.00;100654.97;4956369;29;20421;-86
2022/12/30 09:26:29;;;;;;;14.95;4.13;;;;;;;4.12;100.00;100646.38;4922802;29;20059;-85
2022/12/30 09:28:59;;;;;;;16.03;4.10;;;;;;;4.16;100.00;100653.44;4955439;29;20579;-86
2022/12/30 09:31:27;;;;;;;16.25;3.72;;;;;;;4.20;100.00;100654.38;4955228;28;20058;-86
2022/12/30 09:33:55;;;;;;;14.27;3.53;;;;;;;4.23;100.00;100641.41;4953093;28;20420;-85
2022/12/30 09:36:22;;;;;;;15.25;4.03;;;;;;;4.26;100.00;100637.16;4965229;28;20066;-85
2022/12/30 09:38:50;;;;;;;16.48;3.88;;;;;;;4.28;100.00;100630.25;4939017;28;20417;-85
2022/12/30 09:43:15;;;;;;;18.00;3.45;;;;;;;4.33;100.00;100621.66;4956325;28;20066;-86
2022/12/30 09:44:18;;;;;;;19.60;4.38;;;;;;;4.36;100.00;100625.22;4981754;28;20062;-85
2022/12/30 09:46:51;;;;;;;12.23;3.38;;;;;;;4.39;100.00;100621.81;4971049;28;20676;-85
2022/12/30 09:49:30;;;;;;;14.27;3.45;;;;;;;4.41;100.00;100621.00;4934388;28;20047;-85
2022/12/30 09:52:06;;;;;;;17.48;4.93;;;;;;;4.45;100.00;100619.34;4952369;29;20505;-85
2022/12/30 09:54:34;;;;;;;16.38;4.35;;;;;;;4.48;100.00;100614.22;4982944;28;20523;-85
2022/12/30 09:59:55;;;;;;;14.40;4.45;;;;;;;4.57;100.00;100610.94;4989371;28;20069;-85
2022/12/30 10:02:27;;;;;;;23.15;4.50;;;;;;;4.58;100.00;100603.16;4991095;28;20062;-85
2022/12/30 10:04:58;;;;;;;12.05;4.03;;;;;;;4.62;100.00;100602.38;4968924;28;20051;-87
2022/12/30 10:07:57;;;;;;;16.23;3.90;;;;;;;4.66;100.00;100598.09;4939151;28;20061;-87
2022/12/30 10:10:51;;;;;;;15.80;3.63;;;;;;;4.68;100.00;100588.59;4973647;28;20050;-87
2022/12/30 10:13:25;;;;;;;15.23;3.58;;;;;;;4.69;100.00;100583.41;4990668;28;20052;-85
2022/12/30 10:16:01;;;;;;;17.52;3.25;;;;;;;4.73;100.00;100580.88;4987123;28;20058;-86
2022/12/30 10:18:36;;;;;;;15.02;4.32;;;;;;;4.77;100.00;100580.09;4946354;28;20047;-88
2022/12/30 10:21:22;;;;;;;9.38;3.17;;;;;;;4.80;100.00;100578.44;4989952;28;20051;-86
2022/12/30 10:24:04;;;;;;;17.85;4.25;;;;;;;4.82;100.00;100568.91;4982793;28;20062;-87
2022/12/30 10:26:42;;;;;;;11.30;3.20;;;;;;;4.86;100.00;100575.94;4995973;28;20054;-87
2022/12/30 10:29:18;;;;;;;15.05;3.47;;;;;;;4.89;100.00;100549.00;4990214;28;20043;-86
2022/12/30 10:31:47;;;;;;;12.57;3.40;;;;;;;4.93;100.00;100539.50;4973299;28;20814;-87
2022/12/30 10:34:31;;;;;;;12.02;3.03;;;;;;;4.97;100.00;100534.41;4959283;28;20073;-86
2022/12/30 10:37:11;;;;;;;10.65;2.92;;;;;;;4.99;100.00;100524.88;4982418;28;20058;-86
2022/12/30 10:39:45;;;;;;;9.95;2.40;;;;;;;5.05;100.00;100514.53;4958541;28;20407;-86
2022/12/30 10:42:36;;;;;;;13.57;3.28;;;;;;;5.08;100.00;100516.31;4990639;28;20051;-86
2022/12/30 10:45:26;;;;;;;7.50;2.20;;;;;;;5.13;100.00;100508.59;4965378;28;20055;-86
2022/12/30 10:48:24;;;;;;;10.57;3.00;;;;;;;5.18;100.00;100497.38;4984614;28;20047;-86
2022/12/30 10:50:52;;;;;;;10.95;2.40;;;;;;;5.23;100.00;100493.13;4955644;28;20058;-86
2022/12/30 10:53:22;;;;;;;10.23;3.13;;;;;;;5.28;100.00;100482.78;4941529;28;20070;-86
2022/12/30 10:55:58;;;;;;;7.43;2.25;;;;;;;5.32;100.00;100470.66;4990729;28;20110;-86
2022/12/30 10:58:32;;;;;;;15.25;2.90;;;;;;;5.36;100.00;100469.84;4989314;28;20051;-86
2022/12/30 11:01:01;;;;;;;9.90;2.63;;;;;;;5.40;100.00;100453.38;4994947;28;20122;-86
2022/12/30 11:03:31;;;;;;;10.60;2.28;;;;;;;5.44;100.00;100442.09;4977125;28;20051;-86
2022/12/30 11:06:14;;;;;;;;;;;;;;;5.49;100.00;100421.28;4983982;28;20411;-86
2022/12/30 11:08:42;;;;;;;9.75;2.70;;;;;;;5.54;100.00;100417.00;4967140;28;20124;-86
2022/12/30 11:11:11;;;;;;;6.72;2.42;;;;;;;5.59;100.00;100412.75;4979959;28;20061;-86
2022/12/30 11:16:33;;;;;;;9.65;2.63;;;;;;;5.72;100.00;100409.47;4975746;28;20070;-86
2022/12/30 11:19:03;;;;;;;16.38;2.60;;;;;;;5.76;100.00;100403.44;4970880;28;20039;-86
2022/12/30 11:21:38;;;;;;;5.70;2.45;;;;;;;5.79;100.00;100382.56;4971222;28;20047;-86
2022/12/30 11:24:13;;;;;;;9.57;2.40;;;;;;;5.83;100.00;100397.44;4942322;28;20384;-86
2022/12/30 11:26:46;;;;;;;6.15;2.22;;;;;;;5.86;100.00;100384.44;4978313;28;20647;-86
2022/12/30 11:29:21;;;;;;;8.48;2.45;;;;;;;5.88;100.00;100381.84;5007052;28;20049;-86
2022/12/30 11:31:53;;;;;;;11.00;3.05;;;;;;;5.89;100.00;100373.13;4992887;28;20695;-86
2022/12/30 11:34:26;;;;;;;10.40;2.38;;;;;;;5.90;100.00;100367.03;4976964;28;20050;-87
2022/12/30 11:36:53;;;;;;;8.98;2.70;;;;;;;5.91;100.00;100357.47;4970839;28;20062;-86
2022/12/30 11:39:32;;;;;;;8.07;2.50;;;;;;;5.91;100.00;100355.72;4990629;28;20055;-87
2022/12/30 11:42:02;;;;;;;6.47;2.00;;;;;;;5.92;100.00;100351.38;4974164;28;20444;-85
2022/12/30 11:44:31;;;;;;;16.83;3.00;;;;;;;5.94;100.00;100345.31;4958702;28;20074;-87
2022/12/30 11:47:06;;;;;;;7.20;2.55;;;;;;;5.97;100.00;100336.66;4966852;28;20043;-86
2022/12/30 11:49:54;;;;;;;10.27;2.65;;;;;;;5.99;100.00;100320.13;4972790;28;20058;-81
2022/12/30 11:52:23;;;;;;;8.00;2.70;;;;;;;6.01;100.00;100326.25;4944862;28;20051;-80
2022/12/30 11:55:02;;;;;;;9.70;2.22;;;;;;;6.03;100.00;100315.78;4981145;28;20436;-80
2022/12/30 11:57:36;;;;;;;10.90;2.53;;;;;;;6.06;100.00;100315.84;4971502;28;20436;-79
2022/12/30 12:00:35;;;;;;;9.98;2.58;;;;;;;6.08;100.00;100308.91;4960730;28;20763;-84
2022/12/30 12:03:08;;;;;;;9.07;2.80;;;;;;;6.12;100.00;100300.22;4967566;28;20051;-80
2022/12/30 12:05:42;;;;;;;13.27;2.72;;;;;;;6.14;100.00;100292.41;4962898;28;20054;-79
2022/12/30 12:08:20;;;;;;;8.38;3.55;;;;;;;6.16;100.00;100288.97;4934517;28;20795;-79
2022/12/30 12:10:56;;;;;;;7.03;2.80;;;;;;;6.19;100.00;100278.50;4967342;28;20112;-79
2022/12/30 12:13:43;;;;;;;7.80;2.90;;;;;;;6.21;100.00;100274.19;4965850;28;20058;-80
2022/12/30 12:16:15;;;;;;;5.82;2.28;;;;;;;6.22;100.00;100257.63;4962300;28;20053;-80
2022/12/30 12:18:47;;;;;;;8.93;2.70;;;;;;;6.24;100.00;100253.28;4986170;28;20484;-79
2022/12/30 12:21:26;;;;;;;3.70;2.20;;;;;;;6.25;100.00;100244.56;4965461;28;20069;-79
2022/12/30 12:24:16;;;;;;;6.40;1.90;;;;;;;6.28;100.00;100227.16;4934978;28;20062;-79
2022/12/30 12:27:00;;;;;;;5.63;2.25;;;;;;;6.30;100.00;100222.84;4970793;28;20059;-80
2022/12/30 12:29:28;;;;;;;9.43;2.20;;;;;;;6.32;100.00;100216.75;4970842;28;20051;-80
2022/12/30 12:32:02;;;;;;;6.85;1.83;;;;;;;6.32;100.00;100202.78;4969749;28;20062;-80
2022/12/30 12:34:58;;;;;;;11.68;2.38;;;;;;;6.36;100.00;100189.72;4970066;28;20524;-81
2022/12/30 12:38:00;;;;;;;8.95;2.28;;;;;;;6.38;100.00;100176.66;4964290;28;20473;-80